sensor_id;sensor_type;location;lat;lon;timestamp;temperature;humidity
10722;DHT22;5412;59.450;18.124;2023-02-28T00:01:34;4.40;99.90
10722;DHT22;5412;59.450;18.124;2023-02-28T00:04:00;4.50;99.90
10722;DHT22;5412;59.450;18.124;2023-02-28T00:06:26;4.40;99.90
10722;DHT22;5412;59.450;18.124;2023-02-28T00:08:52;4.50;99.90
10722;DHT22;5412;59.450;18.124;2023-02-28T00:11:17;4.50;99.90
10722;DHT22;5412;59.450;18.124;2023-02-28T00:13:45;4.50;99.90
10722;DHT22;5412;59.450;18.124;2023-02-28T00:16:19;4.50;99.90
10722;DHT22;5412;59.450;18.124;2023-02-28T00:18:46;4.40;99.90
10722;DHT22;5412;59.450;18.124;2023-02-28T00:21:13;4.40;99.90
10722;DHT22;5412;59.450;18.124;2023-02-28T00:23:39;4.30;99.90
10722;DHT22;5412;59.450;18.124;2023-02-28T00:26:04;4.40;99.90
10722;DHT22;5412;59.450;18.124;2023-02-28T00:28:30;4.30;99.90
10722;DHT22;5412;59.450;18.124;2023-02-28T00:30:56;4.20;99.90
10722;DHT22;5412;59.450;18.124;2023-02-28T00:33:23;4.20;99.90
10722;DHT22;5412;59.450;18.124;2023-02-28T00:35:48;4.20;99.90
10722;DHT22;5412;59.450;18.124;2023-02-28T00:38:16;4.30;99.90
10722;DHT22;5412;59.450;18.124;2023-02-28T00:40:43;4.30;99.90
10722;DHT22;5412;59.450;18.124;2023-02-28T00:43:08;4.30;99.90
10722;DHT22;5412;59.450;18.124;2023-02-28T00:45:34;4.30;99.90
10722;DHT22;5412;59.450;18.124;2023-02-28T00:48:00;4.30;99.90
10722;DHT22;5412;59.450;18.124;2023-02-28T00:50:26;4.40;99.90
10722;DHT22;5412;59.450;18.124;2023-02-28T00:52:52;4.40;99.90
10722;DHT22;5412;59.450;18.124;2023-02-28T00:55:17;4.40;99.90
10722;DHT22;5412;59.450;18.124;2023-02-28T00:57:44;4.40;99.90
10722;DHT22;5412;59.450;18.124;2023-02-28T01:00:10;4.30;99.90
10722;DHT22;5412;59.450;18.124;2023-02-28T01:02:36;4.30;99.90
10722;DHT22;5412;59.450;18.124;2023-02-28T01:05:02;4.20;99.90
10722;DHT22;5412;59.450;18.124;2023-02-28T01:07:28;4.30;99.90
10722;DHT22;5412;59.450;18.124;2023-02-28T01:09:54;4.20;99.90
10722;DHT22;5412;59.450;18.124;2023-02-28T01:12:20;4.10;99.90
10722;DHT22;5412;59.450;18.124;2023-02-28T01:14:45;4.20;99.90
10722;DHT22;5412;59.450;18.124;2023-02-28T01:17:11;4.10;99.90
10722;DHT22;5412;59.450;18.124;2023-02-28T01:19:37;4.10;99.90
10722;DHT22;5412;59.450;18.124;2023-02-28T01:22:04;4.10;99.90
10722;DHT22;5412;59.450;18.124;2023-02-28T01:24:30;4.00;99.90
10722;DHT22;5412;59.450;18.124;2023-02-28T01:26:56;4.00;99.90
10722;DHT22;5412;59.450;18.124;2023-02-28T01:29:22;4.00;99.90
10722;DHT22;5412;59.450;18.124;2023-02-28T01:31:47;4.00;99.90
10722;DHT22;5412;59.450;18.124;2023-02-28T01:34:13;4.00;99.90
10722;DHT22;5412;59.450;18.124;2023-02-28T01:36:39;4.10;99.90
10722;DHT22;5412;59.450;18.124;2023-02-28T01:39:05;4.20;99.90
10722;DHT22;5412;59.450;18.124;2023-02-28T01:41:33;4.20;99.90
10722;DHT22;5412;59.450;18.124;2023-02-28T01:46:29;4.20;99.90
10722;DHT22;5412;59.450;18.124;2023-02-28T01:49:04;4.10;99.90
10722;DHT22;5412;59.450;18.124;2023-02-28T01:51:47;4.10;99.90
10722;DHT22;5412;59.450;18.124;2023-02-28T01:54:30;4.10;99.90
10722;DHT22;5412;59.450;18.124;2023-02-28T01:59:40;4.00;99.90
10722;DHT22;5412;59.450;18.124;2023-02-28T02:02:15;4.00;99.90
10722;DHT22;5412;59.450;18.124;2023-02-28T02:04:57;3.90;99.90
10722;DHT22;5412;59.450;18.124;2023-02-28T02:07:25;3.90;99.90
10722;DHT22;5412;59.450;18.124;2023-02-28T02:10:10;3.90;99.90
10722;DHT22;5412;59.450;18.124;2023-02-28T02:15:41;3.90;99.90
10722;DHT22;5412;59.450;18.124;2023-02-28T02:35:08;3.40;99.90
10722;DHT22;5412;59.450;18.124;2023-02-28T02:37:57;3.30;99.90
10722;DHT22;5412;59.450;18.124;2023-02-28T02:40:47;3.20;99.90
10722;DHT22;5412;59.450;18.124;2023-02-28T02:43:19;3.20;99.90
10722;DHT22;5412;59.450;18.124;2023-02-28T02:48:19;3.30;99.90
10722;DHT22;5412;59.450;18.124;2023-02-28T02:50:53;3.20;99.90
10722;DHT22;5412;59.450;18.124;2023-02-28T02:53:23;3.20;99.90
10722;DHT22;5412;59.450;18.124;2023-02-28T02:55:51;3.20;99.90
10722;DHT22;5412;59.450;18.124;2023-02-28T02:58:23;3.20;99.90
10722;DHT22;5412;59.450;18.124;2023-02-28T03:00:56;3.40;99.90
10722;DHT22;5412;59.450;18.124;2023-02-28T03:03:23;3.40;99.90
10722;DHT22;5412;59.450;18.124;2023-02-28T03:05:55;3.50;99.90
10722;DHT22;5412;59.450;18.124;2023-02-28T03:08:21;3.50;99.90
10722;DHT22;5412;59.450;18.124;2023-02-28T03:10:52;3.50;99.90
10722;DHT22;5412;59.450;18.124;2023-02-28T03:13:58;3.60;99.90
10722;DHT22;5412;59.450;18.124;2023-02-28T03:19:34;3.40;99.90
10722;DHT22;5412;59.450;18.124;2023-02-28T03:27:32;3.50;99.90
10722;DHT22;5412;59.450;18.124;2023-02-28T03:32:53;3.60;99.90
10722;DHT22;5412;59.450;18.124;2023-02-28T03:35:31;3.80;99.90
10722;DHT22;5412;59.450;18.124;2023-02-28T03:38:22;3.90;99.90
10722;DHT22;5412;59.450;18.124;2023-02-28T03:41:00;4.00;99.90
10722;DHT22;5412;59.450;18.124;2023-02-28T03:43:29;4.10;99.90
10722;DHT22;5412;59.450;18.124;2023-02-28T03:45:59;4.20;99.90
10722;DHT22;5412;59.450;18.124;2023-02-28T03:48:52;4.30;99.90
10722;DHT22;5412;59.450;18.124;2023-02-28T03:51:22;4.30;99.90
10722;DHT22;5412;59.450;18.124;2023-02-28T03:54:04;4.30;99.90
10722;DHT22;5412;59.450;18.124;2023-02-28T03:56:37;4.30;99.90
10722;DHT22;5412;59.450;18.124;2023-02-28T03:59:26;4.20;99.90
10722;DHT22;5412;59.450;18.124;2023-02-28T04:01:53;4.20;99.90
10722;DHT22;5412;59.450;18.124;2023-02-28T04:04:20;4.10;99.90
10722;DHT22;5412;59.450;18.124;2023-02-28T04:06:50;4.00;99.90
10722;DHT22;5412;59.450;18.124;2023-02-28T04:09:15;3.80;99.90
10722;DHT22;5412;59.450;18.124;2023-02-28T04:11:46;3.40;99.90
10722;DHT22;5412;59.450;18.124;2023-02-28T04:14:13;3.40;99.90
10722;DHT22;5412;59.450;18.124;2023-02-28T04:16:41;3.40;99.90
10722;DHT22;5412;59.450;18.124;2023-02-28T04:19:08;3.30;99.90
10722;DHT22;5412;59.450;18.124;2023-02-28T04:21:37;3.40;99.90
10722;DHT22;5412;59.450;18.124;2023-02-28T04:24:05;3.40;99.90
10722;DHT22;5412;59.450;18.124;2023-02-28T04:26:32;3.20;99.90
10722;DHT22;5412;59.450;18.124;2023-02-28T04:28:59;3.20;99.90
10722;DHT22;5412;59.450;18.124;2023-02-28T04:31:24;3.10;99.90
10722;DHT22;5412;59.450;18.124;2023-02-28T04:33:50;3.20;99.90
10722;DHT22;5412;59.450;18.124;2023-02-28T04:36:17;3.20;99.90
10722;DHT22;5412;59.450;18.124;2023-02-28T04:38:46;3.20;99.90
10722;DHT22;5412;59.450;18.124;2023-02-28T04:41:13;3.20;99.90
10722;DHT22;5412;59.450;18.124;2023-02-28T04:43:38;3.20;99.90
10722;DHT22;5412;59.450;18.124;2023-02-28T04:46:05;3.10;99.90
10722;DHT22;5412;59.450;18.124;2023-02-28T04:48:33;3.00;99.90
10722;DHT22;5412;59.450;18.124;2023-02-28T04:51:03;3.10;99.90
10722;DHT22;5412;59.450;18.124;2023-02-28T04:53:30;2.90;99.90
10722;DHT22;5412;59.450;18.124;2023-02-28T04:55:56;2.80;99.90
10722;DHT22;5412;59.450;18.124;2023-02-28T04:58:22;2.80;99.90
10722;DHT22;5412;59.450;18.124;2023-02-28T05:00:49;2.70;99.90
10722;DHT22;5412;59.450;18.124;2023-02-28T05:03:15;2.60;99.90
10722;DHT22;5412;59.450;18.124;2023-02-28T05:05:41;2.60;99.90
10722;DHT22;5412;59.450;18.124;2023-02-28T05:08:07;2.40;99.90
10722;DHT22;5412;59.450;18.124;2023-02-28T05:10:32;2.40;99.90
10722;DHT22;5412;59.450;18.124;2023-02-28T05:12:58;2.50;99.90
10722;DHT22;5412;59.450;18.124;2023-02-28T05:15:24;2.50;99.90
10722;DHT22;5412;59.450;18.124;2023-02-28T05:17:50;2.50;99.90
10722;DHT22;5412;59.450;18.124;2023-02-28T05:20:16;2.50;99.90
10722;DHT22;5412;59.450;18.124;2023-02-28T05:22:43;2.50;99.90
10722;DHT22;5412;59.450;18.124;2023-02-28T05:25:15;2.50;99.90
10722;DHT22;5412;59.450;18.124;2023-02-28T05:27:41;2.50;99.90
10722;DHT22;5412;59.450;18.124;2023-02-28T05:30:08;2.40;99.90
10722;DHT22;5412;59.450;18.124;2023-02-28T05:32:40;2.50;99.90
10722;DHT22;5412;59.450;18.124;2023-02-28T05:35:12;3.00;99.90
10722;DHT22;5412;59.450;18.124;2023-02-28T05:37:38;2.40;99.90
10722;DHT22;5412;59.450;18.124;2023-02-28T05:40:05;2.30;99.90
10722;DHT22;5412;59.450;18.124;2023-02-28T05:42:32;2.30;99.90
10722;DHT22;5412;59.450;18.124;2023-02-28T05:44:58;2.40;99.90
10722;DHT22;5412;59.450;18.124;2023-02-28T05:47:24;2.40;99.90
10722;DHT22;5412;59.450;18.124;2023-02-28T05:49:50;2.40;99.90
10722;DHT22;5412;59.450;18.124;2023-02-28T05:52:16;2.40;99.90
10722;DHT22;5412;59.450;18.124;2023-02-28T05:54:42;2.40;99.90
10722;DHT22;5412;59.450;18.124;2023-02-28T05:57:07;2.40;99.90
10722;DHT22;5412;59.450;18.124;2023-02-28T05:59:33;2.50;99.90
10722;DHT22;5412;59.450;18.124;2023-02-28T06:01:59;2.50;99.90
10722;DHT22;5412;59.450;18.124;2023-02-28T06:04:25;2.50;99.90
10722;DHT22;5412;59.450;18.124;2023-02-28T06:06:51;2.50;99.90
10722;DHT22;5412;59.450;18.124;2023-02-28T06:09:17;2.50;99.90
10722;DHT22;5412;59.450;18.124;2023-02-28T06:11:44;2.70;99.90
10722;DHT22;5412;59.450;18.124;2023-02-28T06:14:18;2.70;99.90
10722;DHT22;5412;59.450;18.124;2023-02-28T06:16:44;2.80;99.90
10722;DHT22;5412;59.450;18.124;2023-02-28T06:19:10;2.90;99.90
10722;DHT22;5412;59.450;18.124;2023-02-28T06:21:36;2.90;99.90
10722;DHT22;5412;59.450;18.124;2023-02-28T06:24:02;3.00;99.90
10722;DHT22;5412;59.450;18.124;2023-02-28T06:26:28;3.00;99.90
10722;DHT22;5412;59.450;18.124;2023-02-28T06:28:55;3.10;99.90
10722;DHT22;5412;59.450;18.124;2023-02-28T06:31:21;3.20;99.90
10722;DHT22;5412;59.450;18.124;2023-02-28T06:33:48;3.20;99.90
10722;DHT22;5412;59.450;18.124;2023-02-28T06:36:15;3.10;99.90
10722;DHT22;5412;59.450;18.124;2023-02-28T06:38:41;3.20;99.90
10722;DHT22;5412;59.450;18.124;2023-02-28T06:41:07;3.20;99.90
10722;DHT22;5412;59.450;18.124;2023-02-28T06:43:36;3.30;99.90
10722;DHT22;5412;59.450;18.124;2023-02-28T06:46:04;3.30;99.90
10722;DHT22;5412;59.450;18.124;2023-02-28T06:48:30;3.30;99.90
10722;DHT22;5412;59.450;18.124;2023-02-28T06:51:09;3.40;99.90
10722;DHT22;5412;59.450;18.124;2023-02-28T06:53:35;3.40;99.90
10722;DHT22;5412;59.450;18.124;2023-02-28T06:56:10;3.40;99.90
10722;DHT22;5412;59.450;18.124;2023-02-28T06:58:36;3.50;99.90
10722;DHT22;5412;59.450;18.124;2023-02-28T07:01:03;3.40;99.90
10722;DHT22;5412;59.450;18.124;2023-02-28T07:03:29;3.50;99.90
10722;DHT22;5412;59.450;18.124;2023-02-28T07:05:55;3.60;99.90
10722;DHT22;5412;59.450;18.124;2023-02-28T07:08:22;3.60;99.90
10722;DHT22;5412;59.450;18.124;2023-02-28T07:10:52;3.70;99.90
10722;DHT22;5412;59.450;18.124;2023-02-28T07:13:18;3.70;99.90
10722;DHT22;5412;59.450;18.124;2023-02-28T07:15:44;3.70;99.90
10722;DHT22;5412;59.450;18.124;2023-02-28T07:18:09;3.60;99.90
10722;DHT22;5412;59.450;18.124;2023-02-28T07:20:35;3.70;99.90
10722;DHT22;5412;59.450;18.124;2023-02-28T07:23:01;3.70;99.90
10722;DHT22;5412;59.450;18.124;2023-02-28T07:25:28;3.70;99.90
10722;DHT22;5412;59.450;18.124;2023-02-28T07:27:55;3.70;99.90
10722;DHT22;5412;59.450;18.124;2023-02-28T07:30:21;3.80;99.90
10722;DHT22;5412;59.450;18.124;2023-02-28T07:32:48;3.90;99.90
10722;DHT22;5412;59.450;18.124;2023-02-28T07:35:14;3.90;99.90
10722;DHT22;5412;59.450;18.124;2023-02-28T07:37:41;3.90;99.90
10722;DHT22;5412;59.450;18.124;2023-02-28T07:40:09;3.90;99.90
10722;DHT22;5412;59.450;18.124;2023-02-28T07:42:39;4.00;99.90
10722;DHT22;5412;59.450;18.124;2023-02-28T07:45:06;4.00;99.90
10722;DHT22;5412;59.450;18.124;2023-02-28T07:47:32;4.10;99.90
10722;DHT22;5412;59.450;18.124;2023-02-28T07:49:58;4.10;99.90
10722;DHT22;5412;59.450;18.124;2023-02-28T07:52:24;4.20;99.90
10722;DHT22;5412;59.450;18.124;2023-02-28T07:54:50;4.20;99.90
10722;DHT22;5412;59.450;18.124;2023-02-28T07:57:16;4.20;99.90
10722;DHT22;5412;59.450;18.124;2023-02-28T07:59:42;4.30;99.90
10722;DHT22;5412;59.450;18.124;2023-02-28T08:02:15;4.40;99.90
10722;DHT22;5412;59.450;18.124;2023-02-28T08:04:41;4.50;99.90
10722;DHT22;5412;59.450;18.124;2023-02-28T08:07:07;4.50;99.90
10722;DHT22;5412;59.450;18.124;2023-02-28T08:09:33;4.60;99.90
10722;DHT22;5412;59.450;18.124;2023-02-28T08:11:59;4.60;99.90
10722;DHT22;5412;59.450;18.124;2023-02-28T08:14:26;4.60;99.90
10722;DHT22;5412;59.450;18.124;2023-02-28T08:16:51;4.60;99.90
10722;DHT22;5412;59.450;18.124;2023-02-28T08:19:17;4.70;99.90
10722;DHT22;5412;59.450;18.124;2023-02-28T08:21:43;4.70;99.90
10722;DHT22;5412;59.450;18.124;2023-02-28T08:24:09;4.70;99.90
10722;DHT22;5412;59.450;18.124;2023-02-28T08:26:34;4.80;99.90
10722;DHT22;5412;59.450;18.124;2023-02-28T08:29:00;4.80;99.90
10722;DHT22;5412;59.450;18.124;2023-02-28T08:31:26;4.80;99.90
10722;DHT22;5412;59.450;18.124;2023-02-28T08:33:52;4.80;99.90
10722;DHT22;5412;59.450;18.124;2023-02-28T08:36:19;4.80;99.90
10722;DHT22;5412;59.450;18.124;2023-02-28T08:38:45;4.90;99.90
10722;DHT22;5412;59.450;18.124;2023-02-28T08:41:12;4.90;99.90
10722;DHT22;5412;59.450;18.124;2023-02-28T08:43:39;4.90;99.90
10722;DHT22;5412;59.450;18.124;2023-02-28T08:46:05;4.90;99.90
10722;DHT22;5412;59.450;18.124;2023-02-28T08:48:33;4.80;99.90
10722;DHT22;5412;59.450;18.124;2023-02-28T08:51:06;4.90;99.90
10722;DHT22;5412;59.450;18.124;2023-02-28T08:53:32;4.90;99.90
10722;DHT22;5412;59.450;18.124;2023-02-28T08:56:00;4.90;99.90
10722;DHT22;5412;59.450;18.124;2023-02-28T08:58:26;5.00;99.90
10722;DHT22;5412;59.450;18.124;2023-02-28T09:00:52;5.10;99.90
10722;DHT22;5412;59.450;18.124;2023-02-28T09:03:18;5.20;99.90
10722;DHT22;5412;59.450;18.124;2023-02-28T09:05:59;5.30;99.90
10722;DHT22;5412;59.450;18.124;2023-02-28T09:08:26;5.30;99.90
10722;DHT22;5412;59.450;18.124;2023-02-28T09:10:52;5.50;99.90
10722;DHT22;5412;59.450;18.124;2023-02-28T09:13:19;5.50;99.90
10722;DHT22;5412;59.450;18.124;2023-02-28T09:15:45;5.50;99.90
10722;DHT22;5412;59.450;18.124;2023-02-28T09:18:11;5.50;99.90
10722;DHT22;5412;59.450;18.124;2023-02-28T09:20:38;5.60;99.90
10722;DHT22;5412;59.450;18.124;2023-02-28T09:23:05;5.70;99.90
10722;DHT22;5412;59.450;18.124;2023-02-28T09:25:31;5.80;99.90
10722;DHT22;5412;59.450;18.124;2023-02-28T09:27:57;5.90;99.90
10722;DHT22;5412;59.450;18.124;2023-02-28T09:30:22;5.90;99.90
10722;DHT22;5412;59.450;18.124;2023-02-28T09:32:48;5.90;99.90
10722;DHT22;5412;59.450;18.124;2023-02-28T09:35:23;6.10;99.90
10722;DHT22;5412;59.450;18.124;2023-02-28T09:37:51;6.00;99.90
10722;DHT22;5412;59.450;18.124;2023-02-28T09:40:18;6.10;99.90
10722;DHT22;5412;59.450;18.124;2023-02-28T09:42:49;6.20;99.90
10722;DHT22;5412;59.450;18.124;2023-02-28T09:45:26;6.30;99.90
10722;DHT22;5412;59.450;18.124;2023-02-28T09:47:59;6.30;99.90
10722;DHT22;5412;59.450;18.124;2023-02-28T09:50:41;6.40;99.90
10722;DHT22;5412;59.450;18.124;2023-02-28T09:53:19;6.50;99.90
10722;DHT22;5412;59.450;18.124;2023-02-28T09:55:49;6.40;99.90
10722;DHT22;5412;59.450;18.124;2023-02-28T10:00:57;6.60;99.90
10722;DHT22;5412;59.450;18.124;2023-02-28T10:03:36;6.60;99.90
10722;DHT22;5412;59.450;18.124;2023-02-28T10:06:14;6.60;99.90
10722;DHT22;5412;59.450;18.124;2023-02-28T10:09:04;6.70;99.90
10722;DHT22;5412;59.450;18.124;2023-02-28T10:11:36;6.80;99.90
10722;DHT22;5412;59.450;18.124;2023-02-28T10:21:31;6.90;99.90
10722;DHT22;5412;59.450;18.124;2023-02-28T10:24:21;7.60;99.90
10722;DHT22;5412;59.450;18.124;2023-02-28T10:26:48;7.10;99.90
10722;DHT22;5412;59.450;18.124;2023-02-28T10:29:18;7.10;99.90
10722;DHT22;5412;59.450;18.124;2023-02-28T10:31:43;7.10;99.90
10722;DHT22;5412;59.450;18.124;2023-02-28T10:34:12;7.20;99.90
10722;DHT22;5412;59.450;18.124;2023-02-28T10:36:38;7.20;99.90
10722;DHT22;5412;59.450;18.124;2023-02-28T10:39:37;7.20;99.90
10722;DHT22;5412;59.450;18.124;2023-02-28T10:42:04;7.30;99.90
10722;DHT22;5412;59.450;18.124;2023-02-28T10:44:30;7.30;99.90
10722;DHT22;5412;59.450;18.124;2023-02-28T10:46:56;7.40;99.90
10722;DHT22;5412;59.450;18.124;2023-02-28T10:49:25;7.40;99.90
10722;DHT22;5412;59.450;18.124;2023-02-28T10:51:57;7.50;99.90
10722;DHT22;5412;59.450;18.124;2023-02-28T10:54:31;7.60;99.90
10722;DHT22;5412;59.450;18.124;2023-02-28T10:57:20;7.70;99.90
10722;DHT22;5412;59.450;18.124;2023-02-28T10:59:46;7.70;99.90
10722;DHT22;5412;59.450;18.124;2023-02-28T11:02:45;7.70;99.90
10722;DHT22;5412;59.450;18.124;2023-02-28T11:05:32;7.60;99.90
10722;DHT22;5412;59.450;18.124;2023-02-28T11:08:18;7.70;99.90
10722;DHT22;5412;59.450;18.124;2023-02-28T11:10:56;7.70;99.90
10722;DHT22;5412;59.450;18.124;2023-02-28T11:13:31;7.70;99.90
10722;DHT22;5412;59.450;18.124;2023-02-28T11:15:59;7.90;99.90
10722;DHT22;5412;59.450;18.124;2023-02-28T11:18:40;7.90;99.90
10722;DHT22;5412;59.450;18.124;2023-02-28T11:21:08;8.10;99.90
10722;DHT22;5412;59.450;18.124;2023-02-28T11:23:36;8.10;99.90
10722;DHT22;5412;59.450;18.124;2023-02-28T11:26:06;8.10;99.90
10722;DHT22;5412;59.450;18.124;2023-02-28T11:28:38;8.20;99.90
10722;DHT22;5412;59.450;18.124;2023-02-28T11:33:53;8.30;99.90
10722;DHT22;5412;59.450;18.124;2023-02-28T11:36:29;8.40;99.90
10722;DHT22;5412;59.450;18.124;2023-02-28T11:39:09;8.40;99.90
10722;DHT22;5412;59.450;18.124;2023-02-28T11:53:00;8.30;99.90
10722;DHT22;5412;59.450;18.124;2023-02-28T11:55:38;8.30;99.90
10722;DHT22;5412;59.450;18.124;2023-02-28T12:12:03;8.60;99.90
10722;DHT22;5412;59.450;18.124;2023-02-28T12:17:26;8.60;99.90
10722;DHT22;5412;59.450;18.124;2023-02-28T12:28:01;8.80;99.90
10722;DHT22;5412;59.450;18.124;2023-02-28T12:30:33;8.80;99.90
10722;DHT22;5412;59.450;18.124;2023-02-28T12:33:09;8.90;99.90
10722;DHT22;5412;59.450;18.124;2023-02-28T12:41:33;9.10;99.90
10722;DHT22;5412;59.450;18.124;2023-02-28T12:43:44;9.20;99.90
10722;DHT22;5412;59.450;18.124;2023-02-28T12:46:20;9.20;99.90
10722;DHT22;5412;59.450;18.124;2023-02-28T12:48:52;9.20;99.90
10722;DHT22;5412;59.450;18.124;2023-02-28T12:51:19;9.20;99.90
10722;DHT22;5412;59.450;18.124;2023-02-28T12:53:49;9.20;99.90
10722;DHT22;5412;59.450;18.124;2023-02-28T13:07:28;9.20;99.90
10722;DHT22;5412;59.450;18.124;2023-02-28T13:09:59;9.30;99.90
10722;DHT22;5412;59.450;18.124;2023-02-28T13:12:26;9.30;99.90
10722;DHT22;5412;59.450;18.124;2023-02-28T13:15:16;9.30;99.90
10722;DHT22;5412;59.450;18.124;2023-02-28T13:17:49;9.40;99.90
10722;DHT22;5412;59.450;18.124;2023-02-28T13:20:35;9.30;99.90
10722;DHT22;5412;59.450;18.124;2023-02-28T13:23:01;9.30;99.90
10722;DHT22;5412;59.450;18.124;2023-02-28T13:28:07;9.40;99.90
10722;DHT22;5412;59.450;18.124;2023-02-28T13:44:12;9.30;99.90
10722;DHT22;5412;59.450;18.124;2023-02-28T13:49:28;9.50;99.90
10722;DHT22;5412;59.450;18.124;2023-02-28T14:03:41;10.30;99.90
10722;DHT22;5412;59.450;18.124;2023-02-28T14:06:27;10.60;99.90
10722;DHT22;5412;59.450;18.124;2023-02-28T14:11:42;11.50;99.90
10722;DHT22;5412;59.450;18.124;2023-02-28T14:14:53;12.00;99.90
10722;DHT22;5412;59.450;18.124;2023-02-28T14:16:55;12.30;99.90
10722;DHT22;5412;59.450;18.124;2023-02-28T14:19:28;12.00;99.90
10722;DHT22;5412;59.450;18.124;2023-02-28T14:24:33;11.60;99.90
10722;DHT22;5412;59.450;18.124;2023-02-28T14:36:24;12.20;99.90
10722;DHT22;5412;59.450;18.124;2023-02-28T14:38:54;12.10;99.90
10722;DHT22;5412;59.450;18.124;2023-02-28T14:41:33;11.70;99.90
10722;DHT22;5412;59.450;18.124;2023-02-28T14:44:14;11.20;99.90
10722;DHT22;5412;59.450;18.124;2023-02-28T14:46:42;10.70;99.90
10722;DHT22;5412;59.450;18.124;2023-02-28T14:49:28;10.40;99.90
10722;DHT22;5412;59.450;18.124;2023-02-28T14:52:17;10.20;99.90
10722;DHT22;5412;59.450;18.124;2023-02-28T14:54:44;10.00;99.90
10722;DHT22;5412;59.450;18.124;2023-02-28T14:57:27;9.80;99.90
10722;DHT22;5412;59.450;18.124;2023-02-28T15:00:29;9.70;99.90
10722;DHT22;5412;59.450;18.124;2023-02-28T15:02:56;9.70;99.90
10722;DHT22;5412;59.450;18.124;2023-02-28T15:05:33;9.60;99.90
10722;DHT22;5412;59.450;18.124;2023-02-28T15:08:17;9.70;99.90
10722;DHT22;5412;59.450;18.124;2023-02-28T15:11:01;9.60;99.90
10722;DHT22;5412;59.450;18.124;2023-02-28T15:13:48;9.40;99.90
10722;DHT22;5412;59.450;18.124;2023-02-28T15:16:25;9.20;99.90
10722;DHT22;5412;59.450;18.124;2023-02-28T15:19:02;9.20;99.90
10722;DHT22;5412;59.450;18.124;2023-02-28T15:21:31;8.90;99.90
10722;DHT22;5412;59.450;18.124;2023-02-28T15:26:36;8.70;99.90
10722;DHT22;5412;59.450;18.124;2023-02-28T15:29:10;8.70;99.90
10722;DHT22;5412;59.450;18.124;2023-02-28T15:31:44;8.70;99.90
10722;DHT22;5412;59.450;18.124;2023-02-28T15:34:34;8.60;99.90
10722;DHT22;5412;59.450;18.124;2023-02-28T15:37:01;8.60;99.90
10722;DHT22;5412;59.450;18.124;2023-02-28T15:39:28;8.60;99.90
10722;DHT22;5412;59.450;18.124;2023-02-28T15:42:17;8.50;99.90
10722;DHT22;5412;59.450;18.124;2023-02-28T15:44:43;8.40;99.90
10722;DHT22;5412;59.450;18.124;2023-02-28T15:47:24;8.40;99.90
10722;DHT22;5412;59.450;18.124;2023-02-28T15:52:47;8.20;99.90
10722;DHT22;5412;59.450;18.124;2023-02-28T15:57:41;8.00;99.90
10722;DHT22;5412;59.450;18.124;2023-02-28T16:00:18;7.80;99.90
10722;DHT22;5412;59.450;18.124;2023-02-28T16:02:44;7.80;99.90
10722;DHT22;5412;59.450;18.124;2023-02-28T16:07:41;7.70;99.90
10722;DHT22;5412;59.450;18.124;2023-02-28T16:10:10;7.70;99.90
10722;DHT22;5412;59.450;18.124;2023-02-28T16:12:38;7.60;99.90
10722;DHT22;5412;59.450;18.124;2023-02-28T16:15:20;7.50;99.90
10722;DHT22;5412;59.450;18.124;2023-02-28T16:17:47;7.50;99.90
10722;DHT22;5412;59.450;18.124;2023-02-28T16:20:24;7.60;99.90
10722;DHT22;5412;59.450;18.124;2023-02-28T16:22:51;7.50;99.90
10722;DHT22;5412;59.450;18.124;2023-02-28T16:25:20;7.50;99.90
10722;DHT22;5412;59.450;18.124;2023-02-28T16:27:48;7.50;99.90
10722;DHT22;5412;59.450;18.124;2023-02-28T16:30:24;7.50;99.90
10722;DHT22;5412;59.450;18.124;2023-02-28T16:32:51;7.50;99.90
10722;DHT22;5412;59.450;18.124;2023-02-28T16:35:18;7.40;99.90
10722;DHT22;5412;59.450;18.124;2023-02-28T16:37:44;7.40;99.90
10722;DHT22;5412;59.450;18.124;2023-02-28T16:40:19;7.40;99.90
10722;DHT22;5412;59.450;18.124;2023-02-28T16:42:47;7.40;99.90
10722;DHT22;5412;59.450;18.124;2023-02-28T16:45:22;7.30;99.90
10722;DHT22;5412;59.450;18.124;2023-02-28T16:47:49;7.20;99.90
10722;DHT22;5412;59.450;18.124;2023-02-28T16:50:17;7.20;99.90
10722;DHT22;5412;59.450;18.124;2023-02-28T16:52:43;7.20;99.90
10722;DHT22;5412;59.450;18.124;2023-02-28T16:55:10;7.20;99.90
10722;DHT22;5412;59.450;18.124;2023-02-28T16:57:36;7.10;99.90
10722;DHT22;5412;59.450;18.124;2023-02-28T17:00:04;7.10;99.90
10722;DHT22;5412;59.450;18.124;2023-02-28T17:02:30;7.10;99.90
10722;DHT22;5412;59.450;18.124;2023-02-28T17:04:55;7.10;99.90
10722;DHT22;5412;59.450;18.124;2023-02-28T17:07:21;7.10;99.90
10722;DHT22;5412;59.450;18.124;2023-02-28T17:09:47;7.10;99.90
10722;DHT22;5412;59.450;18.124;2023-02-28T17:12:13;7.10;99.90
10722;DHT22;5412;59.450;18.124;2023-02-28T17:14:39;7.10;99.90
10722;DHT22;5412;59.450;18.124;2023-02-28T17:17:06;7.00;99.90
10722;DHT22;5412;59.450;18.124;2023-02-28T17:19:32;7.00;99.90
10722;DHT22;5412;59.450;18.124;2023-02-28T17:21:59;7.00;99.90
10722;DHT22;5412;59.450;18.124;2023-02-28T17:24:26;7.00;99.90
10722;DHT22;5412;59.450;18.124;2023-02-28T17:26:51;7.00;99.90
10722;DHT22;5412;59.450;18.124;2023-02-28T17:29:21;7.00;99.90
10722;DHT22;5412;59.450;18.124;2023-02-28T17:31:47;6.90;99.90
10722;DHT22;5412;59.450;18.124;2023-02-28T17:34:13;7.00;99.90
10722;DHT22;5412;59.450;18.124;2023-02-28T17:36:51;6.90;99.90
10722;DHT22;5412;59.450;18.124;2023-02-28T17:39:18;6.90;99.90
10722;DHT22;5412;59.450;18.124;2023-02-28T17:41:51;6.90;99.90
10722;DHT22;5412;59.450;18.124;2023-02-28T17:44:17;6.90;99.90
10722;DHT22;5412;59.450;18.124;2023-02-28T17:46:45;6.90;99.90
10722;DHT22;5412;59.450;18.124;2023-02-28T17:49:12;6.80;99.90
10722;DHT22;5412;59.450;18.124;2023-02-28T17:51:38;6.90;99.90
10722;DHT22;5412;59.450;18.124;2023-02-28T17:54:04;6.90;99.90
10722;DHT22;5412;59.450;18.124;2023-02-28T17:56:30;6.90;99.90
10722;DHT22;5412;59.450;18.124;2023-02-28T17:58:57;6.80;99.90
10722;DHT22;5412;59.450;18.124;2023-02-28T18:01:23;6.80;99.90
10722;DHT22;5412;59.450;18.124;2023-02-28T18:03:52;6.80;99.90
10722;DHT22;5412;59.450;18.124;2023-02-28T18:06:23;6.70;99.90
10722;DHT22;5412;59.450;18.124;2023-02-28T18:08:51;6.80;99.90
10722;DHT22;5412;59.450;18.124;2023-02-28T18:11:20;6.70;99.90
10722;DHT22;5412;59.450;18.124;2023-02-28T18:13:51;6.70;99.90
10722;DHT22;5412;59.450;18.124;2023-02-28T18:16:18;6.70;99.90
10722;DHT22;5412;59.450;18.124;2023-02-28T18:18:44;6.70;99.90
10722;DHT22;5412;59.450;18.124;2023-02-28T18:21:12;6.70;99.90
10722;DHT22;5412;59.450;18.124;2023-02-28T18:23:38;6.70;99.90
10722;DHT22;5412;59.450;18.124;2023-02-28T18:26:13;6.70;99.90
10722;DHT22;5412;59.450;18.124;2023-02-28T18:28:39;6.70;99.90
10722;DHT22;5412;59.450;18.124;2023-02-28T18:31:08;6.60;99.90
10722;DHT22;5412;59.450;18.124;2023-02-28T18:33:34;6.60;99.90
10722;DHT22;5412;59.450;18.124;2023-02-28T18:36:00;6.50;99.90
10722;DHT22;5412;59.450;18.124;2023-02-28T18:38:26;6.50;99.90
10722;DHT22;5412;59.450;18.124;2023-02-28T18:41:00;6.50;99.90
10722;DHT22;5412;59.450;18.124;2023-02-28T18:43:27;6.50;99.90